sensor_id;sensor_type;location;lat;lon;timestamp;pressure;altitude;pressure_sealevel;temperature;humidity
77739;BME280;66904;59.926;30.404;2023-03-21T00:01:59;100361.97;;;27.32;28.39
77739;BME280;66904;59.926;30.404;2023-03-21T00:06:59;100365.78;;;27.31;28.33
77739;BME280;66904;59.926;30.404;2023-03-21T00:12:00;100359.72;;;27.29;28.76
77739;BME280;66904;59.926;30.404;2023-03-21T00:17:37;100366.94;;;27.35;28.80
77739;BME280;66904;59.926;30.404;2023-03-21T00:23:12;100367.41;;;27.32;28.48
77739;BME280;66904;59.926;30.404;2023-03-21T00:28:15;100346.63;;;27.26;27.99
77739;BME280;66904;59.926;30.404;2023-03-21T00:33:16;100347.22;;;27.28;28.50
77739;BME280;66904;59.926;30.404;2023-03-21T00:38:47;100335.66;;;27.32;28.22
77739;BME280;66904;59.926;30.404;2023-03-21T00:44:07;100341.53;;;27.29;28.60
77739;BME280;66904;59.926;30.404;2023-03-21T00:49:12;100330.69;;;27.29;28.21
77739;BME280;66904;59.926;30.404;2023-03-21T00:54:13;100335.53;;;27.27;28.10
77739;BME280;66904;59.926;30.404;2023-03-21T00:59:13;100332.81;;;27.27;28.51
77739;BME280;66904;59.926;30.404;2023-03-21T01:04:14;100329.25;;;27.27;28.11
77739;BME280;66904;59.926;30.404;2023-03-21T01:09:18;100323.22;;;27.24;28.72
77739;BME280;66904;59.926;30.404;2023-03-21T01:14:21;100330.94;;;27.28;28.13
77739;BME280;66904;59.926;30.404;2023-03-21T01:19:23;100325.72;;;27.26;28.17
77739;BME280;66904;59.926;30.404;2023-03-21T01:24:28;100334.72;;;27.38;28.38
77739;BME280;66904;59.926;30.404;2023-03-21T01:29:28;100332.81;;;27.27;28.30
77739;BME280;66904;59.926;30.404;2023-03-21T01:34:29;100338.47;;;27.26;28.50
77739;BME280;66904;59.926;30.404;2023-03-21T01:39:31;100341.44;;;27.24;28.00
77739;BME280;66904;59.926;30.404;2023-03-21T01:44:51;100343.69;;;27.27;28.40
77739;BME280;66904;59.926;30.404;2023-03-21T01:49:56;100360.44;;;27.24;28.70
77739;BME280;66904;59.926;30.404;2023-03-21T01:54:57;100375.28;;;27.21;28.51
77739;BME280;66904;59.926;30.404;2023-03-21T02:00:03;100379.31;;;27.19;28.12
77739;BME280;66904;59.926;30.404;2023-03-21T02:05:11;100375.16;;;27.16;28.36
77739;BME280;66904;59.926;30.404;2023-03-21T02:10:13;100389.56;;;27.17;28.14
77739;BME280;66904;59.926;30.404;2023-03-21T02:15:15;100387.91;;;27.16;28.45
77739;BME280;66904;59.926;30.404;2023-03-21T02:36:43;100395.00;;;27.17;27.94
77739;BME280;66904;59.926;30.404;2023-03-21T02:41:50;100386.25;;;27.15;28.06
77739;BME280;66904;59.926;30.404;2023-03-21T02:47:17;100390.63;;;27.16;27.56
77739;BME280;66904;59.926;30.404;2023-03-21T02:52:25;100386.13;;;27.10;27.87
77739;BME280;66904;59.926;30.404;2023-03-21T02:57:27;100389.41;;;27.12;27.93
77739;BME280;66904;59.926;30.404;2023-03-21T03:02:28;100395.47;;;27.14;27.76
77739;BME280;66904;59.926;30.404;2023-03-21T03:07:55;100386.25;;;27.15;27.21
77739;BME280;66904;59.926;30.404;2023-03-21T03:18:21;100378.34;;;27.13;27.43
77739;BME280;66904;59.926;30.404;2023-03-21T03:28:53;100380.69;;;27.10;26.88
77739;BME280;66904;59.926;30.404;2023-03-21T03:34:00;100394.47;;;27.08;26.99
77739;BME280;66904;59.926;30.404;2023-03-21T03:39:05;100393.06;;;27.06;27.35
77739;BME280;66904;59.926;30.404;2023-03-21T03:44:08;100394.34;;;27.03;27.35
77739;BME280;66904;59.926;30.404;2023-03-21T03:49:19;100391.03;;;27.01;26.94
77739;BME280;66904;59.926;30.404;2023-03-21T03:54:30;100400.84;;;27.02;26.87
77739;BME280;66904;59.926;30.404;2023-03-21T03:59:36;100405.06;;;26.98;26.59
77739;BME280;66904;59.926;30.404;2023-03-21T04:04:38;100408.22;;;26.95;27.00
77739;BME280;66904;59.926;30.404;2023-03-21T04:09:38;100420.97;;;26.95;26.78
77739;BME280;66904;59.926;30.404;2023-03-21T04:14:39;100434.78;;;26.93;27.24
77739;BME280;66904;59.926;30.404;2023-03-21T04:19:40;100429.81;;;26.90;26.78
77739;BME280;66904;59.926;30.404;2023-03-21T04:24:40;100448.19;;;26.88;26.96
77739;BME280;66904;59.926;30.404;2023-03-21T04:29:41;100449.50;;;26.86;27.11
77739;BME280;66904;59.926;30.404;2023-03-21T04:34:43;100456.34;;;26.88;27.09
77739;BME280;66904;59.926;30.404;2023-03-21T04:39:49;100453.78;;;26.93;27.74
77739;BME280;66904;59.926;30.404;2023-03-21T04:44:50;100454.84;;;26.92;28.35
77739;BME280;66904;59.926;30.404;2023-03-21T04:49:50;100468.97;;;27.01;28.03
77739;BME280;66904;59.926;30.404;2023-03-21T04:54:52;100470.91;;;27.12;28.57
77739;BME280;66904;59.926;30.404;2023-03-21T04:59:53;100470.72;;;27.25;28.49
77739;BME280;66904;59.926;30.404;2023-03-21T05:04:53;100467.47;;;27.35;27.83
77739;BME280;66904;59.926;30.404;2023-03-21T05:09:54;100471.03;;;27.35;27.96
77739;BME280;66904;59.926;30.404;2023-03-21T05:14:54;100481.38;;;27.27;27.76
77739;BME280;66904;59.926;30.404;2023-03-21T05:19:55;100489.63;;;27.20;27.85
77739;BME280;66904;59.926;30.404;2023-03-21T05:24:56;100489.06;;;27.11;28.00
77739;BME280;66904;59.926;30.404;2023-03-21T05:29:56;100496.03;;;27.07;28.10
77739;BME280;66904;59.926;30.404;2023-03-21T05:34:57;100488.56;;;27.03;27.34
77739;BME280;66904;59.926;30.404;2023-03-21T05:39:57;100502.16;;;27.03;28.01
77739;BME280;66904;59.926;30.404;2023-03-21T05:44:59;100502.59;;;27.00;27.74
77739;BME280;66904;59.926;30.404;2023-03-21T05:50:00;100510.75;;;27.00;27.47
77739;BME280;66904;59.926;30.404;2023-03-21T05:55:00;100525.38;;;26.99;27.65
77739;BME280;66904;59.926;30.404;2023-03-21T06:00:01;100532.91;;;26.97;27.25
77739;BME280;66904;59.926;30.404;2023-03-21T06:05:02;100531.50;;;26.94;27.75
77739;BME280;66904;59.926;30.404;2023-03-21T06:10:03;100533.38;;;26.94;27.88
77739;BME280;66904;59.926;30.404;2023-03-21T06:15:05;100528.41;;;26.91;28.37
77739;BME280;66904;59.926;30.404;2023-03-21T06:20:08;100529.22;;;26.91;28.59
77739;BME280;66904;59.926;30.404;2023-03-21T06:25:10;100532.16;;;26.90;28.34
77739;BME280;66904;59.926;30.404;2023-03-21T06:30:11;100545.94;;;26.88;28.61
77739;BME280;66904;59.926;30.404;2023-03-21T06:35:11;100548.91;;;26.87;28.71
77739;BME280;66904;59.926;30.404;2023-03-21T06:40:12;100557.25;;;26.85;28.99
77739;BME280;66904;59.926;30.404;2023-03-21T06:45:12;100561.50;;;26.81;29.33
77739;BME280;66904;59.926;30.404;2023-03-21T06:50:13;100563.56;;;26.79;29.22
77739;BME280;66904;59.926;30.404;2023-03-21T06:55:14;100566.72;;;26.76;29.52
77739;BME280;66904;59.926;30.404;2023-03-21T07:00:15;100576.13;;;26.73;29.63
77739;BME280;66904;59.926;30.404;2023-03-21T07:05:16;100577.41;;;26.71;30.10
77739;BME280;66904;59.926;30.404;2023-03-21T07:10:16;100585.31;;;26.72;29.75
77739;BME280;66904;59.926;30.404;2023-03-21T07:15:17;100586.38;;;26.71;30.02
77739;BME280;66904;59.926;30.404;2023-03-21T07:20:18;100586.59;;;26.70;29.94
77739;BME280;66904;59.926;30.404;2023-03-21T07:25:18;100579.06;;;26.72;30.20
77739;BME280;66904;59.926;30.404;2023-03-21T07:30:19;100582.00;;;26.70;30.22
77739;BME280;66904;59.926;30.404;2023-03-21T07:35:20;100593.47;;;26.72;30.29
77739;BME280;66904;59.926;30.404;2023-03-21T07:40:20;100598.69;;;26.74;30.09
77739;BME280;66904;59.926;30.404;2023-03-21T07:45:21;100591.38;;;26.75;30.04
77739;BME280;66904;59.926;30.404;2023-03-21T07:50:24;100597.63;;;26.75;30.39
77739;BME280;66904;59.926;30.404;2023-03-21T07:55:25;100597.03;;;26.73;30.51
77739;BME280;66904;59.926;30.404;2023-03-21T08:00:25;100610.38;;;26.75;30.16
77739;BME280;66904;59.926;30.404;2023-03-21T08:05:29;100616.41;;;26.77;30.60
77739;BME280;66904;59.926;30.404;2023-03-21T08:10:30;100615.56;;;26.76;30.23
77739;BME280;66904;59.926;30.404;2023-03-21T08:15:30;100620.41;;;26.74;30.77
77739;BME280;66904;59.926;30.404;2023-03-21T08:20:31;100625.84;;;26.74;30.42
77739;BME280;66904;59.926;30.404;2023-03-21T08:25:32;100636.63;;;26.81;30.22
77739;BME280;66904;59.926;30.404;2023-03-21T08:30:32;100636.44;;;26.82;30.30
77739;BME280;66904;59.926;30.404;2023-03-21T08:35:33;100634.13;;;26.79;30.67
77739;BME280;66904;59.926;30.404;2023-03-21T08:40:33;100656.88;;;26.85;30.09
77739;BME280;66904;59.926;30.404;2023-03-21T08:45:35;100657.50;;;26.87;30.32
77739;BME280;66904;59.926;30.404;2023-03-21T08:50:36;100659.16;;;26.88;30.09
77739;BME280;66904;59.926;30.404;2023-03-21T08:55:36;100664.59;;;26.88;30.56
77739;BME280;66904;59.926;30.404;2023-03-21T09:00:37;100669.34;;;26.92;30.72
77739;BME280;66904;59.926;30.404;2023-03-21T09:05:37;100683.31;;;26.96;30.79
77739;BME280;66904;59.926;30.404;2023-03-21T09:10:38;100680.38;;;26.97;30.45
77739;BME280;66904;59.926;30.404;2023-03-21T09:15:38;100674.72;;;26.99;30.48
77739;BME280;66904;59.926;30.404;2023-03-21T09:20:40;100681.38;;;27.03;30.55
77739;BME280;66904;59.926;30.404;2023-03-21T09:25:44;100683.88;;;27.04;30.61
77739;BME280;66904;59.926;30.404;2023-03-21T09:30:44;100678.66;;;27.03;30.23
77739;BME280;66904;59.926;30.404;2023-03-21T09:35:45;100690.13;;;27.05;30.24
77739;BME280;66904;59.926;30.404;2023-03-21T09:41:15;100707.66;;;27.09;31.09
77739;BME280;66904;59.926;30.404;2023-03-21T09:46:30;100713.25;;;27.14;31.13
77739;BME280;66904;59.926;30.404;2023-03-21T09:51:39;100717.16;;;27.18;31.47
77739;BME280;66904;59.926;30.404;2023-03-21T09:56:41;100718.63;;;27.20;30.29
77739;BME280;66904;59.926;30.404;2023-03-21T10:01:45;100710.47;;;27.20;30.23
77739;BME280;66904;59.926;30.404;2023-03-21T10:06:55;100729.88;;;27.24;31.24
77739;BME280;66904;59.926;30.404;2023-03-21T10:12:03;100722.94;;;27.28;31.58
77739;BME280;66904;59.926;30.404;2023-03-21T10:22:22;100730.69;;;27.24;29.88
77739;BME280;66904;59.926;30.404;2023-03-21T10:27:22;100738.25;;;27.22;30.02
77739;BME280;66904;59.926;30.404;2023-03-21T10:32:23;100738.25;;;27.22;29.65
77739;BME280;66904;59.926;30.404;2023-03-21T10:37:24;100732.81;;;27.22;29.78
77739;BME280;66904;59.926;30.404;2023-03-21T10:42:29;100736.75;;;27.27;29.27
77739;BME280;66904;59.926;30.404;2023-03-21T10:47:33;100740.06;;;27.29;29.01
77739;BME280;66904;59.926;30.404;2023-03-21T10:52:37;100742.97;;;27.34;29.13
77739;BME280;66904;59.926;30.404;2023-03-21T10:57:41;100742.72;;;27.35;28.64
77739;BME280;66904;59.926;30.404;2023-03-21T11:02:42;100749.38;;;27.39;28.44
77739;BME280;66904;59.926;30.404;2023-03-21T11:07:48;100741.03;;;27.41;28.75
77739;BME280;66904;59.926;30.404;2023-03-21T11:12:58;100744.78;;;27.40;28.43
77739;BME280;66904;59.926;30.404;2023-03-21T11:18:13;100754.00;;;27.39;27.84
77739;BME280;66904;59.926;30.404;2023-03-21T11:23:15;100759.47;;;27.32;28.21
77739;BME280;66904;59.926;30.404;2023-03-21T11:28:21;100753.66;;;27.29;27.45
77739;BME280;66904;59.926;30.404;2023-03-21T11:33:31;100751.38;;;27.26;27.06
77739;BME280;66904;59.926;30.404;2023-03-21T11:38:37;100744.97;;;27.20;27.47
77739;BME280;66904;59.926;30.404;2023-03-21T11:43:38;100759.38;;;27.20;27.50
77739;BME280;66904;59.926;30.404;2023-03-21T11:48:46;100749.75;;;27.18;27.85
77739;BME280;66904;59.926;30.404;2023-03-21T12:09:42;100738.91;;;27.18;26.53
77739;BME280;66904;59.926;30.404;2023-03-21T12:25:18;100760.47;;;27.13;26.55
77739;BME280;66904;59.926;30.404;2023-03-21T12:30:47;100758.81;;;27.12;26.12
77739;BME280;66904;59.926;30.404;2023-03-21T12:42:01;100763.06;;;27.01;25.34
77739;BME280;66904;59.926;30.404;2023-03-21T12:47:12;100756.47;;;26.91;24.84
77739;BME280;66904;59.926;30.404;2023-03-21T12:52:22;100760.03;;;26.85;24.83
77739;BME280;66904;59.926;30.404;2023-03-21T13:02:39;100771.53;;;26.80;28.08
77739;BME280;66904;59.926;30.404;2023-03-21T13:07:44;100769.88;;;26.79;26.46
77739;BME280;66904;59.926;30.404;2023-03-21T13:12:54;100767.81;;;26.81;26.69
77739;BME280;66904;59.926;30.404;2023-03-21T13:23:27;100778.44;;;26.83;26.25
77739;BME280;66904;59.926;30.404;2023-03-21T13:28:38;100769.47;;;26.82;26.62
77739;BME280;66904;59.926;30.404;2023-03-21T13:33:39;100777.41;;;26.84;26.49
77739;BME280;66904;59.926;30.404;2023-03-21T13:38:49;100777.41;;;26.84;26.85
77739;BME280;66904;59.926;30.404;2023-03-21T13:59:10;100789.91;;;26.78;26.52
77739;BME280;66904;59.926;30.404;2023-03-21T14:04:16;100794.53;;;26.78;26.20
77739;BME280;66904;59.926;30.404;2023-03-21T14:09:48;100787.19;;;26.78;26.40
77739;BME280;66904;59.926;30.404;2023-03-21T14:15:00;100788.75;;;26.67;25.97
77739;BME280;66904;59.926;30.404;2023-03-21T14:20:18;100781.44;;;26.61;25.57
77739;BME280;66904;59.926;30.404;2023-03-21T14:25:22;100791.25;;;26.62;26.17
77739;BME280;66904;59.926;30.404;2023-03-21T14:35:31;100793.41;;;26.54;26.04
77739;BME280;66904;59.926;30.404;2023-03-21T14:40:33;100797.13;;;26.59;26.00
77739;BME280;66904;59.926;30.404;2023-03-21T14:45:34;100806.94;;;26.60;25.90
77739;BME280;66904;59.926;30.404;2023-03-21T14:50:49;100810.06;;;26.64;25.72
77739;BME280;66904;59.926;30.404;2023-03-21T14:55:59;100809.22;;;26.63;25.53
77739;BME280;66904;59.926;30.404;2023-03-21T15:01:02;100811.31;;;26.55;25.82
77739;BME280;66904;59.926;30.404;2023-03-21T15:06:04;100811.56;;;26.53;25.64
77739;BME280;66904;59.926;30.404;2023-03-21T15:11:11;100815.75;;;26.49;25.56
77739;BME280;66904;59.926;30.404;2023-03-21T15:16:12;100817.84;;;26.47;25.87
77739;BME280;66904;59.926;30.404;2023-03-21T15:21:27;100816.16;;;26.46;24.71
77739;BME280;66904;59.926;30.404;2023-03-21T15:26:30;100810.16;;;26.38;25.64
77739;BME280;66904;59.926;30.404;2023-03-21T15:31:35;100815.59;;;26.38;25.03
77739;BME280;66904;59.926;30.404;2023-03-21T15:36:43;100819.34;;;26.37;24.67
77739;BME280;66904;59.926;30.404;2023-03-21T15:42:01;100823.50;;;26.39;24.68
77739;BME280;66904;59.926;30.404;2023-03-21T15:47:02;100813.09;;;26.36;24.64
77739;BME280;66904;59.926;30.404;2023-03-21T15:52:11;100820.16;;;26.44;25.54
77739;BME280;66904;59.926;30.404;2023-03-21T15:57:24;100829.53;;;26.48;25.88
77739;BME280;66904;59.926;30.404;2023-03-21T16:02:29;100827.06;;;26.40;25.70
77739;BME280;66904;59.926;30.404;2023-03-21T16:07:32;100833.75;;;26.37;25.89
77739;BME280;66904;59.926;30.404;2023-03-21T16:12:33;100836.06;;;26.34;25.71
77739;BME280;66904;59.926;30.404;2023-03-21T16:17:35;100831.66;;;26.33;26.15
77739;BME280;66904;59.926;30.404;2023-03-21T16:22:38;100828.75;;;26.34;26.24
77739;BME280;66904;59.926;30.404;2023-03-21T16:27:39;100837.28;;;26.38;26.09
77739;BME280;66904;59.926;30.404;2023-03-21T16:32:40;100836.03;;;26.40;25.93
77739;BME280;66904;59.926;30.404;2023-03-21T16:37:41;100846.03;;;26.40;26.42
77739;BME280;66904;59.926;30.404;2023-03-21T16:42:41;100838.94;;;26.39;26.69
77739;BME280;66904;59.926;30.404;2023-03-21T16:47:43;100845.22;;;26.39;26.50
77739;BME280;66904;59.926;30.404;2023-03-21T16:52:43;100843.75;;;26.37;26.59
77739;BME280;66904;59.926;30.404;2023-03-21T16:57:44;100857.94;;;26.39;26.27
77739;BME280;66904;59.926;30.404;2023-03-21T17:02:46;100866.28;;;26.44;27.14
77739;BME280;66904;59.926;30.404;2023-03-21T17:07:47;100857.47;;;26.48;27.05
77739;BME280;66904;59.926;30.404;2023-03-21T17:12:48;100865.22;;;26.51;27.50
77739;BME280;66904;59.926;30.404;2023-03-21T17:17:49;100863.75;;;26.49;26.97
77739;BME280;66904;59.926;30.404;2023-03-21T17:22:50;100873.38;;;26.45;27.83
77739;BME280;66904;59.926;30.404;2023-03-21T17:27:51;100873.78;;;26.42;28.05
77739;BME280;66904;59.926;30.404;2023-03-21T17:32:53;100871.50;;;26.39;27.84
77739;BME280;66904;59.926;30.404;2023-03-21T17:37:54;100877.16;;;26.37;27.60
77739;BME280;66904;59.926;30.404;2023-03-21T17:42:58;100873.81;;;26.29;27.85
77739;BME280;66904;59.926;30.404;2023-03-21T17:47:58;100883.44;;;26.31;27.85
77739;BME280;66904;59.926;30.404;2023-03-21T17:52:59;100886.56;;;26.35;27.57
77739;BME280;66904;59.926;30.404;2023-03-21T17:58:00;100892.59;;;26.37;27.72
77739;BME280;66904;59.926;30.404;2023-03-21T18:03:01;100891.56;;;26.31;27.55
77739;BME280;66904;59.926;30.404;2023-03-21T18:08:02;100892.00;;;26.28;27.44
77739;BME280;66904;59.926;30.404;2023-03-21T18:13:02;100898.06;;;26.24;27.04
77739;BME280;66904;59.926;30.404;2023-03-21T18:18:03;100887.41;;;26.22;27.25
77739;BME280;66904;59.926;30.404;2023-03-21T18:23:04;100880.94;;;26.23;27.16
77739;BME280;66904;59.926;30.404;2023-03-21T18:28:05;100876.34;;;26.24;27.29
77739;BME280;66904;59.926;30.404;2023-03-21T18:33:05;100869.25;;;26.23;27.35
77739;BME280;66904;59.926;30.404;2023-03-21T18:38:06;100873.41;;;26.18;26.78
77739;BME280;66904;59.926;30.404;2023-03-21T18:43:07;100872.38;;;26.13;26.94
77739;BME280;66904;59.926;30.404;2023-03-21T18:48:08;100878.22;;;26.10;26.88
77739;BME280;66904;59.926;30.404;2023-03-21T18:53:12;100883.03;;;26.08;26.86
77739;BME280;66904;59.926;30.404;2023-03-21T18:58:13;100874.25;;;26.06;26.44
77739;BME280;66904;59.926;30.404;2023-03-21T19:03:15;100875.69;;;26.08;26.19
77739;BME280;66904;59.926;30.404;2023-03-21T19:08:16;100873.22;;;26.07;26.28
77739;BME280;66904;59.926;30.404;2023-03-21T19:13:17;100870.50;;;26.07;25.98
77739;BME280;66904;59.926;30.404;2023-03-21T19:18:17;100866.53;;;26.09;25.90
77739;BME280;66904;59.926;30.404;2023-03-21T19:23:18;100869.66;;;26.13;25.66
77739;BME280;66904;59.926;30.404;2023-03-21T19:28:20;100870.28;;;26.15;25.67
77739;BME280;66904;59.926;30.404;2023-03-21T19:33:21;100870.72;;;26.18;25.53
77739;BME280;66904;59.926;30.404;2023-03-21T19:38:23;100866.75;;;26.21;25.33
77739;BME280;66904;59.926;30.404;2023-03-21T19:43:24;100869.66;;;26.26;25.36
77739;BME280;66904;59.926;30.404;2023-03-21T19:48:25;100879.66;;;26.32;25.62
77739;BME280;66904;59.926;30.404;2023-03-21T19:53:28;100885.28;;;26.37;25.92
77739;BME280;66904;59.926;30.404;2023-03-21T19:58:29;100887.34;;;26.42;26.10
77739;BME280;66904;59.926;30.404;2023-03-21T20:03:30;100886.13;;;26.38;26.04
77739;BME280;66904;59.926;30.404;2023-03-21T20:08:31;100891.34;;;26.33;25.60
77739;BME280;66904;59.926;30.404;2023-03-21T20:13:32;100890.94;;;26.29;26.14
77739;BME280;66904;59.926;30.404;2023-03-21T20:18:32;100894.47;;;26.30;26.52
77739;BME280;66904;59.926;30.404;2023-03-21T20:23:36;100898.44;;;26.34;26.99
77739;BME280;66904;59.926;30.404;2023-03-21T20:28:38;100890.06;;;26.35;26.70
77739;BME280;66904;59.926;30.404;2023-03-21T20:33:39;100895.72;;;26.40;26.74
77739;BME280;66904;59.926;30.404;2023-03-21T20:38:39;100895.50;;;26.42;26.84
77739;BME280;66904;59.926;30.404;2023-03-21T20:43:40;100892.56;;;26.43;26.65
77739;BME280;66904;59.926;30.404;2023-03-21T20:48:41;100889.03;;;26.43;26.68
77739;BME280;66904;59.926;30.404;2023-03-21T20:53:41;100897.81;;;26.45;26.60
77739;BME280;66904;59.926;30.404;2023-03-21T20:58:42;100908.66;;;26.45;26.88
77739;BME280;66904;59.926;30.404;2023-03-21T21:03:43;100900.53;;;26.45;26.79
77739;BME280;66904;59.926;30.404;2023-03-21T21:08:45;100900.69;;;26.50;26.66
77739;BME280;66904;59.926;30.404;2023-03-21T21:13:45;100899.03;;;26.49;26.46
77739;BME280;66904;59.926;30.404;2023-03-21T21:18:46;100906.94;;;26.57;26.69
77739;BME280;66904;59.926;30.404;2023-03-21T21:23:46;100910.28;;;26.52;26.07
77739;BME280;66904;59.926;30.404;2023-03-21T21:28:47;100922.84;;;26.47;26.09
77739;BME280;66904;59.926;30.404;2023-03-21T21:33:48;100924.53;;;26.41;25.83
77739;BME280;66904;59.926;30.404;2023-03-21T21:38:49;100933.28;;;26.37;26.05
77739;BME280;66904;59.926;30.404;2023-03-21T21:43:52;100940.41;;;26.31;25.76
77739;BME280;66904;59.926;30.404;2023-03-21T21:48:52;100936.03;;;26.24;26.43
77739;BME280;66904;59.926;30.404;2023-03-21T21:53:54;100939.56;;;26.24;26.74
77739;BME280;66904;59.926;30.404;2023-03-21T21:58:55;100942.47;;;26.23;26.95
77739;BME280;66904;59.926;30.404;2023-03-21T22:03:56;100945.63;;;26.26;26.90
77739;BME280;66904;59.926;30.404;2023-03-21T22:09:05;100945.84;;;26.25;26.91
77739;BME280;66904;59.926;30.404;2023-03-21T22:14:06;100949.59;;;26.24;27.12
77739;BME280;66904;59.926;30.404;2023-03-21T22:19:06;100951.69;;;26.22;26.86
77739;BME280;66904;59.926;30.404;2023-03-21T22:24:07;100959.19;;;26.19;26.79
77739;BME280;66904;59.926;30.404;2023-03-21T22:29:07;100952.47;;;26.15;26.83
77739;BME280;66904;59.926;30.404;2023-03-21T22:34:09;100942.88;;;26.13;26.35
77739;BME280;66904;59.926;30.404;2023-03-21T22:39:10;100949.56;;;26.10;26.77
77739;BME280;66904;59.926;30.404;2023-03-21T22:44:11;100948.13;;;26.08;26.65
77739;BME280;66904;59.926;30.404;2023-03-21T22:49:12;100956.66;;;26.05;26.43
77739;BME280;66904;59.926;30.404;2023-03-21T22:54:12;100954.16;;;26.03;26.26
77739;BME280;66904;59.926;30.404;2023-03-21T23:11:05;100965.59;;;25.99;25.79
77739;BME280;66904;59.926;30.404;2023-03-21T23:16:07;100966.03;;;25.96;25.94
77739;BME280;66904;59.926;30.404;2023-03-21T23:21:07;100968.97;;;25.94;25.80
77739;BME280;66904;59.926;30.404;2023-03-21T23:26:12;100966.25;;;25.94;25.80
77739;BME280;66904;59.926;30.404;2023-03-21T23:31:23;100975.22;;;25.95;25.73
77739;BME280;66904;59.926;30.404;2023-03-21T23:36:24;100965.59;;;25.92;25.85
77739;BME280;66904;59.926;30.404;2023-03-21T23:41:24;100967.50;;;25.92;25.63
77739;BME280;66904;59.926;30.404;2023-03-21T23:46:47;100970.63;;;25.95;25.51
77739;BME280;66904;59.926;30.404;2023-03-21T23:52:24;100972.50;;;25.95;25.20
77739;BME280;66904;59.926;30.404;2023-03-21T23:57:30;100976.69;;;25.91;25.47
